Amesville, Ohio
Current Conditions -  °F | °C
As of 3:35 PM on Thursday 20 Nov 2014 (Local Time) from KUNI Reporting Station
Clear Clear  
Wind Chill: 21°   Ceiling: Unl
Heat Index: 32°   Visibility: 10mi
Dew Point: 13°   Wind: 15mph
Humidity: 47%   Direction: 240°WSW
Pressure: 30.1"   Gusts: 21mph
Location:  39.4°N, 81.96°W
Report Text: KUNI 202035Z AUTO 24013G18KT 10SM CLR 00/M10 A3010 RMK AO2 T10021104
Loading
Personal Weather Stations






























Interactive Weather Map New forecast layout! Learn more

10-Day Weather Forecast

Advertisements
Track Severe Weather on mobile